There are no active watches, warnings or advisories for Caledonia (Vermont).

Nearby METAR Reports

 

KCDA - Lyndonville, Vermont, USA
Distance from station: ENE 11mi, 18km
Updated: Wed, 15-Aug-2018 12:55am EDT
Clear
Clear
 Wind from calm
Wind: Calm
Temperature: 66°F , 19°C
Dew Point: 64°F , 18°C
Humidity: 94%
Barometer: 29.88 inHg , 1011.9 hPa
Clouds: Clear
Visibility: 10 miles , 16 km
2018/08/15 04:55 KCDA 150455Z AUTO 00000KT 10SM CLR 19/18 A2988 RMK AO2 T01900181 402780190
K1V4 - St. Johnsbury, Vermont, USA
Distance from station: ESE 12mi, 19km
Updated: Wed, 15-Aug-2018 12:54am EDT

 
Temperature: 66°F , 19°C
Dew Point: 66°F , 19°C
Humidity: 100%
Barometer: 29.83 inHg , 1010.2 hPa
2018/08/15 04:54 K1V4 150454Z AUTO 19/19 A2983 RMK AO1 SLP089 T01940189 402780194
 
KMVL - Morrisville, Vermont, USA
Distance from station: W 20mi, 31km
Updated: Wed, 15-Aug-2018 1:14am EDT
Mist, Clear
Mist, Clear
 Wind from calm
Wind: Calm
Temperature: 63°F , 17°C
Dew Point: 63°F , 17°C
Humidity: 100%
Barometer: 29.84 inHg , 1010.5 hPa
Summary: Mist
Clouds: Clear
Visibility: 5 miles , 8 km
2018/08/15 05:14 KMVL 150514Z AUTO 00000KT 5SM BR CLR 17/17 A2984 RMK AO2 T01720172
KEFK - Newport State, Vermont, USA
Distance from station: N 26mi, 42km
Updated: Wed, 15-Aug-2018 12:55am EDT
Clear
Clear
 Wind from calm
Wind: Calm
Temperature: 66°F , 19°C
Dew Point: 66°F , 19°C
Humidity: 100%
Barometer: 29.85 inHg , 1010.8 hPa
Clouds: Clear
Visibility: 10 miles , 16 km
2018/08/15 04:55 KEFK 150455Z AUTO 00000KT 10SM CLR 19/19 A2985 RMK AO2 T01930189 402800180
 
KMPV - Montpelier/Barre, Vermont, USA
Distance from station: SW 27mi, 44km
Updated: Wed, 15-Aug-2018 12:51am EDT
Clear
Clear
 Wind from calm
Wind: Calm
Temperature: 66°F , 19°C
Dew Point: 66°F , 19°C
Humidity: 100%
Barometer: 29.89 inHg , 1012.2 hPa
Clouds: Clear
Visibility: 10 miles , 16 km
2018/08/15 04:51 KMPV 150451Z AUTO 00000KT 10SM CLR 19/19 A2989 RMK AO2 SLP114 T01940194 402780189
KHIE - Whitefield, New Hampshire, USA
Distance from station: ESE 34mi, 55km
Updated: Wed, 15-Aug-2018 12:52am EDT
Clear
Clear
 Wind from calm
Wind: Calm
Temperature: 63°F , 17°C
Dew Point: 63°F , 17°C
Humidity: 100%
Barometer: 29.86 inHg , 1011.2 hPa
Clouds: Clear
Visibility: 10 miles , 16 km
2018/08/15 04:52 KHIE 150452Z AUTO 00000KT 10SM CLR 17/17 A2986 RMK AO2 SLP106 T01720167 402830172
 
KBTV - Burlington, Vermont, USA
Distance from station: W 46mi, 74km
Updated: Wed, 15-Aug-2018 12:54am EDT
Mostly cloudy
Mostly cloudy
 Wind from S
Wind: S 5 mph , 7 km/h
Temperature: 72°F , 22°C
Dew Point: 64°F , 18°C
Humidity: 78%
Barometer: 29.82 inHg , 1009.8 hPa
Clouds: Mostly cloudy
Visibility: 10 miles , 16 km
Cloud details: Mostly cloudy 5000 ft
2018/08/15 04:54 KBTV 150454Z AUTO 18004KT 10SM BKN050 22/18 A2982 RMK AO2 SLP095 T02220183 403000217
CWFQ - Frelighsburg, Quebec, Canada
Distance from station: NW 47mi, 75km
Updated: Wed, 15-Aug-2018 1:00am EDT

 Wind from SSE
Wind: SSE 3 mph , 6 km/h
Temperature: 68°F , 20°C
Dew Point: 66°F , 19°C
Humidity: 94%
2018/08/15 05:00 CWFQ 150500Z AUTO 16003KT 20/19 RMK AO1 SLP091 T01990191 55000
 
KMWN - Mount Washington, New Hampshire, USA
Distance from station: ESE 49mi, 79km
Updated: Wed, 15-Aug-2018 12:55am EDT

 Wind from W
Wind: W 8 mph , 13 km/h
Visibility: 35 miles , 56 km
2018/08/15 04:55 KMWN 150455Z 26007KT 35SM BKN/// FEW///TCU FEW010 FEW050 FEW120 11/10 RMK TCU DSNT E TPS LWR BKN042 BBLO FEW DSNT E HZ DSNT ALQDS PTCHY VLY FG W-N
KBML - Berlin, New Hampshire, USA
Distance from station: E 51mi, 83km
Updated: Wed, 15-Aug-2018 1:08am EDT
Mist, Mostly cloudy
Mist, Mostly cloudy
 Wind from calm
Wind: Calm
Temperature: 63°F , 17°C
Dew Point: 63°F , 17°C
Humidity: 100%
Barometer: 29.85 inHg , 1010.8 hPa
Summary: Mist
Clouds: Mostly cloudy
Visibility: 1 3/4 miles , 5 km
Cloud details: Few Clouds 200 ft
Mostly cloudy 11000 ft
2018/08/15 05:08 KBML 150508Z AUTO 00000KT 1 3/4SM BR FEW002 BKN110 17/17 A2985 RMK AO2 VIS 1/2V4 T01720172
 
KFSO - Highgate, Vermont, USA
Distance from station: NW 52mi, 84km
Updated: Wed, 15-Aug-2018 12:55am EDT
Clear
Clear
 Wind from S
Wind: S 3 mph , 6 km/h
Temperature: 70°F , 21°C
Dew Point: 68°F , 20°C
Humidity: 94%
Barometer: 29.80 inHg , 1009.1 hPa
Clouds: Clear
Visibility: 10 miles , 16 km
2018/08/15 04:55 KFSO 150455Z AUTO 19003KT 10SM CLR 21/20 A2980 RMK AO2 T02100195 402920196
CWTT - Lac Memphremagog, Quebec, Canada
Distance from station: N 53mi, 85km
Updated: Wed, 15-Aug-2018 1:00am EDT

 Wind from N
Wind: N 2 mph , 4 km/h
Temperature: 70°F , 21°C
Dew Point: 68°F , 20°C
Humidity: 94%
2018/08/15 05:00 CWTT 150500Z AUTO 36002KT 21/20 RMK AO1 T02080203
 
K1P1 - Plymouth, New Hampshire, USA
Distance from station: SSE 55mi, 88km
Updated: Wed, 15-Aug-2018 1:15am EDT
Mist, Overcast
Mist, Overcast
 Wind from calm
Wind: Calm
Temperature: 66°F , 19°C
Dew Point: 64°F , 18°C
Humidity: 94%
Barometer: 29.84 inHg , 1010.5 hPa
Summary: Mist
Clouds: Overcast
Visibility: 1 1/4 miles , 2 km
Cloud details: Mostly cloudy 200 ft
Overcast 2000 ft
2018/08/15 05:15 K1P1 150515Z AUTO 00000KT 1 1/4SM BR BKN002 OVC020 19/18 A2984 RMK AO2 T01900182
KLEB - Lebanon, New Hampshire, USA
Distance from station: S 60mi, 97km
Updated: Wed, 15-Aug-2018 12:53am EDT
Mostly cloudy
Mostly cloudy
 Wind from calm
Wind: Calm
Temperature: 66°F , 19°C
Dew Point: 63°F , 17°C
Humidity: 88%
Barometer: 29.84 inHg , 1010.5 hPa
Clouds: Mostly cloudy
Visibility: 7 miles , 11 km
Cloud details: Mostly cloudy 12000 ft
2018/08/15 04:53 KLEB 150453Z AUTO 00000KT 7SM BKN120 19/17 A2984 RMK AO2 SLP093 T01890172 402830189
 
KPBG - Plattsburgh Afb, New York, USA
Distance from station: W 62mi, 100km
Updated: Wed, 15-Aug-2018 12:53am EDT
Mostly cloudy
Mostly cloudy
 Wind from calm
Wind: Calm
Temperature: 64°F , 18°C
Dew Point: 64°F , 18°C
Humidity: 100%
Barometer: 29.80 inHg , 1009.1 hPa
Clouds: Mostly cloudy
Visibility: 10 miles , 16 km
Cloud details: Mostly cloudy 5000 ft
2018/08/15 04:53 KPBG 150453Z AUTO 00000KT 10SM BKN050 18/18 A2980 RMK AO2 SLP089 T01830183 402830183
CWQH - Lennoxville, Quebec, Canada
Distance from station: NNE 63mi, 101km
Updated: Wed, 15-Aug-2018 1:00am EDT

 Wind from calm
Wind: Calm
Temperature: 68°F , 20°C
Dew Point: 66°F , 19°C
Humidity: 94%
2018/08/15 05:00 CWQH 150500Z AUTO 00000KT 20/19 RMK AO1 T01990192
 
CMGB - Granby, Quebec, Canada
Distance from station: NNW 65mi, 105km
Updated: Wed, 15-Aug-2018 1:00am EDT

 Wind from calm
Wind: Calm
Temperature: 68°F , 20°C
Dew Point: 66°F , 19°C
Humidity: 94%
2018/08/15 05:00 CMGB 150500Z AUTO 00000KT 20/19 RMK AO1 SLP084 T01990194 56002
CYSC - Sherbrooke, Quebec, Canada
Distance from station: NNE 69mi, 112km
Updated: Wed, 15-Aug-2018 1:06am EDT
Few Clouds
Few Clouds
 Wind from calm
Wind: Calm
Temperature: 68°F , 20°C
Dew Point: 68°F , 20°C
Humidity: 100%
Barometer: 29.82 inHg , 1009.8 hPa
Clouds: Few Clouds
Visibility: 7 miles , 11 km
Cloud details: Few Clouds 18000 ft
2018/08/15 05:06 CYSC 150506Z AUTO 00000KT 7SM FEW180 20/20 A2982 RMK SLP098 DENSITY ALT 1600FT
 
KIZG - Fryeburg, Maine, USA
Distance from station: ESE 72mi, 117km
Updated: Wed, 15-Aug-2018 1:14am EDT
Overcast
Overcast
 Wind from calm
Wind: Calm
Temperature: 68°F , 20°C
Dew Point: 68°F , 20°C
Humidity: 100%
Barometer: 29.84 inHg , 1010.5 hPa
Clouds: Overcast
Visibility: 10 miles , 16 km
Cloud details: Overcast 900 ft
2018/08/15 05:14 KIZG 150514Z AUTO 00000KT 10SM OVC009 20/20 A2984 RMK AO2 CIG 006V010 T02000200